Time;durP1;ratioP1;P1;durP2;ratioP2;P2;SDS_P1;SDS_P2;PMS_P1;PMS_P2;Temp;Humidity;BMP_temperature;BMP_pressure;BME280_temperature;BME280_humidity;BME280_pressure;Samples;Min_cycle;Max_cycle;Signal;HPM_P1;HPM_P2
2021/05/01 00:02:11;;;;;;;0.20;0.20;;;;;;;13.81;92.97;100259.44;1779163;80;21151;-42
2021/05/01 00:04:41;;;;;;;0.10;0.10;;;;;;;13.79;92.89;100268.54;1764475;80;21182;-41
2021/05/01 00:07:09;;;;;;;0.33;0.33;;;;;;;13.78;92.84;100261.44;1766031;80;21143;-42
2021/05/01 00:09:37;;;;;;;0.60;0.30;;;;;;;13.75;92.82;100262.30;1789388;78;21150;-41
2021/05/01 00:12:06;;;;;;;0.23;0.13;;;;;;;13.73;92.82;100270.02;1819705;78;21174;-41
2021/05/01 00:14:36;;;;;;;0.10;0.10;;;;;;;13.74;92.82;100266.14;1756375;81;21152;-41
2021/05/01 00:17:04;;;;;;;0.33;0.25;;;;;;;13.75;92.78;100274.66;1780107;80;21130;-41
2021/05/01 00:19:33;;;;;;;0.10;0.10;;;;;;;13.75;92.72;100273.28;1802615;78;21123;-42
2021/05/01 00:22:00;;;;;;;0.00;0.00;;;;;;;13.74;92.69;100271.63;1813270;78;21154;-41
2021/05/01 00:24:28;;;;;;;0.20;0.20;;;;;;;13.72;92.70;100273.05;1816994;78;21505;-41
2021/05/01 00:26:56;;;;;;;3.55;1.00;;;;;;;13.69;92.76;100273.11;1808719;78;21131;-40
2021/05/01 00:29:24;;;;;;;0.10;0.10;;;;;;;13.65;92.82;100281.72;1817174;78;21087;-41
2021/05/01 00:31:52;;;;;;;0.95;0.40;;;;;;;13.60;92.88;100279.61;1794149;78;21163;-41
2021/05/01 00:34:20;;;;;;;0.68;0.17;;;;;;;13.54;93.01;100284.39;1787504;80;21155;-41
2021/05/01 00:36:47;;;;;;;0.20;0.20;;;;;;;13.49;93.17;100285.86;1771507;78;21162;-41
2021/05/01 00:39:15;;;;;;;0.30;0.30;;;;;;;13.43;93.40;100288.45;1769501;79;21138;-41
2021/05/01 00:41:45;;;;;;;0.13;0.13;;;;;;;13.39;93.53;100294.28;1784726;78;21184;-41
2021/05/01 00:44:12;;;;;;;0.53;0.37;;;;;;;13.30;93.69;100294.98;1772283;79;21149;-40
2021/05/01 00:46:40;;;;;;;1.10;1.00;;;;;;;13.23;93.90;100295.90;1768944;79;21464;-41
2021/05/01 00:49:08;;;;;;;0.10;0.10;;;;;;;13.16;94.12;100301.52;1797517;79;21473;-40
2021/05/01 00:51:36;;;;;;;1.25;0.62;;;;;;;13.06;94.29;100303.31;1792394;79;21119;-41
2021/05/01 00:54:05;;;;;;;1.80;1.12;;;;;;;12.98;94.61;100304.53;1786794;79;21110;-42
2021/05/01 00:56:33;;;;;;;0.20;0.20;;;;;;;12.93;95.00;100312.84;1787724;79;21187;-41
2021/05/01 00:59:00;;;;;;;0.53;0.30;;;;;;;12.86;95.26;100323.65;1784844;79;21218;-41
2021/05/01 01:01:29;;;;;;;0.50;0.50;;;;;;;12.81;95.56;100320.98;1750656;79;21588;-41
2021/05/01 01:03:57;;;;;;;0.55;0.37;;;;;;;12.77;95.86;100324.61;1800094;79;21123;-41
2021/05/01 01:06:25;;;;;;;0.30;0.30;;;;;;;12.72;96.08;100328.80;1768482;79;21480;-41
2021/05/01 01:08:53;;;;;;;0.13;0.13;;;;;;;12.64;96.34;100317.95;1739897;81;21182;-40
2021/05/01 01:11:21;;;;;;;10.60;1.25;;;;;;;12.58;96.58;100324.60;1768199;79;21134;-41
2021/05/01 01:13:53;;;;;;;0.15;0.15;;;;;;;12.52;96.74;100324.43;1785226;79;21186;-40
2021/05/01 01:16:20;;;;;;;0.78;0.78;;;;;;;12.45;97.06;100322.85;1777592;79;21149;-41
2021/05/01 01:18:49;;;;;;;0.42;0.40;;;;;;;12.39;97.42;100326.78;1786918;80;21106;-41
2021/05/01 01:21:17;;;;;;;1.45;1.35;;;;;;;12.34;97.62;100330.12;1782711;79;21115;-41
2021/05/01 01:23:46;;;;;;;0.80;0.80;;;;;;;12.27;97.89;100333.25;1762748;81;21183;-41
2021/05/01 01:26:14;;;;;;;0.10;0.10;;;;;;;12.21;98.15;100338.52;1762634;79;21178;-41
2021/05/01 01:28:41;;;;;;;1.82;0.78;;;;;;;12.15;98.39;100345.17;1763182;79;21170;-41
2021/05/01 01:31:09;;;;;;;0.10;0.10;;;;;;;12.10;98.53;100338.39;1743542;80;21489;-41
2021/05/01 01:33:38;;;;;;;2.45;0.45;;;;;;;12.03;98.76;100340.91;1769199;80;21648;-41
2021/05/01 01:36:06;;;;;;;0.75;0.50;;;;;;;11.96;98.98;100337.70;1749604;80;21130;-41
2021/05/01 01:38:36;;;;;;;0.05;0.05;;;;;;;11.91;99.14;100350.09;1746188;80;21147;-41
2021/05/01 01:41:04;;;;;;;1.80;0.37;;;;;;;11.85;99.36;100353.97;1750603;80;21134;-41
2021/05/01 01:43:32;;;;;;;0.20;0.20;;;;;;;11.77;99.59;100350.47;1750914;81;21139;-41
2021/05/01 01:46:00;;;;;;;0.33;0.33;;;;;;;11.70;99.73;100348.09;1750935;81;21221;-40
2021/05/01 01:48:30;;;;;;;0.10;0.10;;;;;;;11.65;99.87;100343.20;1777759;80;21182;-40
2021/05/01 01:50:57;;;;;;;1.82;0.95;;;;;;;11.57;100.00;100348.76;1763041;80;21704;-41
2021/05/01 01:53:25;;;;;;;0.85;0.40;;;;;;;11.50;100.00;100351.85;1773163;80;21163;-41
2021/05/01 01:55:53;;;;;;;0.10;0.10;;;;;;;11.43;100.00;100355.47;1755001;80;21166;-42
2021/05/01 01:58:21;;;;;;;2.65;0.42;;;;;;;11.34;100.00;100356.63;1760314;80;21346;-41
2021/05/01 02:00:50;;;;;;;0.28;0.20;;;;;;;11.26;100.00;100352.34;1753307;80;21138;-40
2021/05/01 02:03:18;;;;;;;0.53;0.53;;;;;;;11.18;100.00;100362.78;1728102;81;21167;-41
2021/05/01 02:05:46;;;;;;;0.30;0.20;;;;;;;11.09;100.00;100361.75;1781212;80;21427;-41
2021/05/01 02:08:14;;;;;;;0.40;0.17;;;;;;;11.03;100.00;100372.48;1766612;80;21159;-40
2021/05/01 02:10:42;;;;;;;0.78;0.23;;;;;;;10.97;100.00;100369.50;1753859;81;21166;-41
2021/05/01 02:13:09;;;;;;;1.90;1.40;;;;;;;10.92;100.00;100375.00;1775643;80;21647;-40
2021/05/01 02:15:37;;;;;;;0.28;0.28;;;;;;;10.87;100.00;100372.30;1778487;80;21163;-40
2021/05/01 02:18:05;;;;;;;0.10;0.10;;;;;;;10.82;100.00;100375.06;1780000;80;21107;-41
2021/05/01 02:20:37;;;;;;;0.53;0.53;;;;;;;10.75;100.00;100378.91;1780817;80;21177;-41
2021/05/01 02:23:05;;;;;;;0.40;0.40;;;;;;;10.71;100.00;100382.52;1760715;80;21596;-41
2021/05/01 02:25:33;;;;;;;0.57;0.45;;;;;;;10.67;100.00;100389.64;1763566;80;21761;-40
2021/05/01 02:28:01;;;;;;;0.00;0.00;;;;;;;10.62;100.00;100387.74;1771212;80;20988;-40
2021/05/01 02:30:30;;;;;;;0.05;0.05;;;;;;;10.60;100.00;100390.49;1743210;80;21186;-40
2021/05/01 02:32:58;;;;;;;0.10;0.10;;;;;;;10.57;100.00;100394.60;1780388;78;21098;-41
2021/05/01 02:35:33;;;;;;;0.50;0.50;;;;;;;10.55;100.00;100402.25;1819578;78;21122;-42
2021/05/01 02:38:01;;;;;;;1.55;1.35;;;;;;;10.53;100.00;100408.55;1784708;80;21588;-40
2021/05/01 02:40:31;;;;;;;0.00;0.00;;;;;;;10.53;100.00;100418.11;1758418;81;21170;-41
2021/05/01 02:43:06;;;;;;;0.33;0.33;;;;;;;10.55;100.00;100424.11;1749275;81;21163;-40
2021/05/01 02:45:34;;;;;;;1.00;0.57;;;;;;;10.61;100.00;100423.53;1732125;81;21127;-42
2021/05/01 02:48:03;;;;;;;0.15;0.15;;;;;;;10.67;100.00;100419.14;1754182;81;21126;-41
2021/05/01 02:50:31;;;;;;;0.65;0.65;;;;;;;10.70;100.00;100417.77;1748074;81;21175;-42
2021/05/01 02:52:59;;;;;;;1.02;0.93;;;;;;;10.71;100.00;100421.59;1736676;81;21159;-41
2021/05/01 02:55:27;;;;;;;0.30;0.30;;;;;;;10.73;100.00;100419.92;1747492;80;21118;-40
2021/05/01 02:57:55;;;;;;;0.62;0.33;;;;;;;10.75;100.00;100422.64;1740392;82;21677;-41
2021/05/01 03:00:25;;;;;;;0.50;0.50;;;;;;;10.78;100.00;100426.77;1743095;80;21142;-40
2021/05/01 03:02:54;;;;;;;1.92;0.78;;;;;;;10.80;100.00;100436.03;1765364;81;21549;-40
2021/05/01 03:05:22;;;;;;;0.25;0.25;;;;;;;10.81;100.00;100434.95;1767011;81;21157;-40
2021/05/01 03:07:50;;;;;;;0.00;0.00;;;;;;;10.82;100.00;100441.48;1740717;82;21146;-41
2021/05/01 03:10:24;;;;;;;0.20;0.20;;;;;;;10.79;100.00;100452.98;1741273;81;21811;-41
2021/05/01 03:12:55;;;;;;;1.00;0.90;;;;;;;10.78;100.00;100451.88;1754219;81;21577;-41
2021/05/01 03:15:24;;;;;;;1.05;0.62;;;;;;;10.78;100.00;100457.35;1750452;81;21185;-40
2021/05/01 03:17:52;;;;;;;0.30;0.30;;;;;;;10.79;100.00;100459.81;1747240;81;21582;-41
2021/05/01 03:20:20;;;;;;;0.10;0.10;;;;;;;10.80;100.00;100465.54;1745270;81;21183;-40
2021/05/01 03:22:49;;;;;;;0.40;0.40;;;;;;;10.81;100.00;100466.38;1741078;81;21137;-41
2021/05/01 03:25:17;;;;;;;1.92;1.10;;;;;;;10.82;100.00;100463.91;1742594;80;21114;-41
2021/05/01 03:27:45;;;;;;;0.20;0.20;;;;;;;10.89;100.00;100462.50;1770929;80;21592;-41
2021/05/01 03:30:20;;;;;;;0.28;0.28;;;;;;;10.99;100.00;100462.99;1748628;80;21280;-41
2021/05/01 03:32:48;;;;;;;0.50;0.50;;;;;;;11.09;100.00;100464.30;1787326;78;21106;-41
2021/05/01 03:35:16;;;;;;;3.90;0.70;;;;;;;11.23;100.00;100462.33;1793308;80;21121;-40
2021/05/01 03:37:44;;;;;;;0.10;0.10;;;;;;;11.32;100.00;100466.07;1801828;78;21455;-41
2021/05/01 03:40:12;;;;;;;0.20;0.20;;;;;;;11.43;100.00;100467.65;1771227;80;21159;-42
2021/05/01 03:42:40;;;;;;;0.78;0.78;;;;;;;11.54;100.00;100473.30;1792848;79;21155;-41
2021/05/01 03:45:09;;;;;;;0.93;0.55;;;;;;;11.64;100.00;100471.03;1808183;79;21751;-41
2021/05/01 03:47:37;;;;;;;0.25;0.15;;;;;;;11.75;100.00;100470.42;1817101;78;21125;-41
2021/05/01 03:50:07;;;;;;;1.07;0.23;;;;;;;11.86;100.00;100468.40;1812117;78;21103;-41
2021/05/01 03:52:35;;;;;;;0.70;0.70;;;;;;;11.97;100.00;100473.53;1818330;78;21091;-42
2021/05/01 03:55:04;;;;;;;1.50;1.40;;;;;;;12.09;100.00;100475.05;1813559;78;21126;-41
2021/05/01 03:57:34;;;;;;;0.00;0.00;;;;;;;12.18;100.00;100473.33;1821831;78;21122;-41
2021/05/01 04:00:03;;;;;;;3.30;0.88;;;;;;;12.27;100.00;100474.34;1788436;80;21141;-41
2021/05/01 04:02:32;;;;;;;0.55;0.28;;;;;;;12.38;100.00;100471.73;1799858;78;21130;-42
2021/05/01 04:05:00;;;;;;;1.15;0.60;;;;;;;12.48;100.00;100471.63;1823732;78;21153;-42
2021/05/01 04:07:27;;;;;;;2.42;1.12;;;;;;;12.60;100.00;100478.07;1808710;78;21167;-41
2021/05/01 04:09:55;;;;;;;1.52;0.85;;;;;;;12.70;100.00;100475.77;1804680;78;21094;-41
2021/05/01 04:12:23;;;;;;;1.25;1.17;;;;;;;12.79;100.00;100482.23;1826443;78;21172;-42
2021/05/01 04:14:50;;;;;;;0.68;0.68;;;;;;;12.88;100.00;100489.24;1747491;80;21530;-41
2021/05/01 04:17:18;;;;;;;0.37;0.37;;;;;;;12.97;100.00;100495.72;1803669;78;21155;-41
2021/05/01 04:19:47;;;;;;;1.00;1.00;;;;;;;13.06;100.00;100491.77;1771887;78;21132;-42
2021/05/01 04:22:18;;;;;;;0.03;0.03;;;;;;;13.14;100.00;100502.08;1791760;80;21490;-42
2021/05/01 04:24:45;;;;;;;0.80;0.80;;;;;;;13.24;100.00;100506.05;1795857;78;21094;-41
2021/05/01 04:27:13;;;;;;;0.70;0.70;;;;;;;13.36;100.00;100514.45;1790355;78;21150;-41
2021/05/01 04:29:43;;;;;;;0.65;0.60;;;;;;;13.44;100.00;100508.28;1821527;78;21180;-43
2021/05/01 04:32:11;;;;;;;0.90;0.88;;;;;;;13.53;100.00;100510.63;1824367;78;21426;-41
2021/05/01 04:34:38;;;;;;;2.40;1.27;;;;;;;13.63;100.00;100517.89;1795250;78;21086;-41
2021/05/01 04:37:06;;;;;;;1.30;1.15;;;;;;;13.73;100.00;100518.53;1795363;78;21102;-43
2021/05/01 04:39:34;;;;;;;0.42;0.37;;;;;;;13.83;100.00;100512.63;1787963;80;21151;-41
2021/05/01 04:42:05;;;;;;;0.20;0.17;;;;;;;13.90;99.57;100514.44;1795136;78;21573;-40
2021/05/01 04:44:35;;;;;;;1.30;0.68;;;;;;;13.97;99.24;100512.94;1787797;80;21166;-41
2021/05/01 04:47:03;;;;;;;7.22;1.17;;;;;;;14.07;98.24;100513.33;1798908;77;21120;-41
2021/05/01 04:49:32;;;;;;;2.83;1.07;;;;;;;14.15;97.37;100504.38;1796909;78;21106;-42
2021/05/01 04:52:01;;;;;;;3.05;0.55;;;;;;;14.23;96.67;100504.80;1794109;78;21238;-40
2021/05/01 04:54:28;;;;;;;0.55;0.55;;;;;;;14.30;96.27;100505.22;1787586;78;21457;-40
2021/05/01 04:56:55;;;;;;;0.60;0.60;;;;;;;14.37;95.51;100513.33;1811537;78;21150;-40
2021/05/01 04:59:23;;;;;;;2.77;1.65;;;;;;;14.43;94.88;100515.41;1794080;78;21135;-42
2021/05/01 05:01:51;;;;;;;1.85;1.05;;;;;;;14.53;94.14;100522.13;1795972;78;21467;-40
2021/05/01 05:04:18;;;;;;;0.33;0.33;;;;;;;14.62;93.68;100523.62;1800156;78;21111;-41
2021/05/01 05:06:46;;;;;;;0.70;0.70;;;;;;;14.72;93.08;100529.48;1801530;77;21057;-41
2021/05/01 05:09:13;;;;;;;1.30;1.22;;;;;;;14.80;92.44;100530.14;1814697;79;21135;-41
2021/05/01 05:11:41;;;;;;;1.40;0.40;;;;;;;14.87;91.97;100529.17;1807972;78;21134;-40
2021/05/01 05:14:08;;;;;;;0.50;0.50;;;;;;;14.96;91.55;100538.88;1784182;80;21113;-40
2021/05/01 05:16:36;;;;;;;1.57;0.85;;;;;;;15.03;91.31;100537.38;1760685;80;21130;-41
2021/05/01 05:19:04;;;;;;;1.45;0.95;;;;;;;15.14;90.69;100539.34;1786621;79;21195;-42
2021/05/01 05:21:31;;;;;;;2.35;1.32;;;;;;;15.28;90.42;100543.44;1781438;78;21158;-41
2021/05/01 05:24:05;;;;;;;0.80;0.80;;;;;;;15.44;89.89;100539.80;1821532;78;21158;-41
2021/05/01 05:26:33;;;;;;;0.72;0.57;;;;;;;15.57;88.88;100543.06;1798641;78;21125;-42
2021/05/01 05:29:00;;;;;;;1.65;0.85;;;;;;;15.71;88.55;100542.26;1754338;81;21170;-41
2021/05/01 05:31:28;;;;;;;1.02;1.00;;;;;;;15.80;88.02;100548.09;1783914;79;21114;-41
2021/05/01 05:33:55;;;;;;;4.65;1.55;;;;;;;15.83;86.90;100547.45;1783880;80;21598;-42
2021/05/01 05:36:24;;;;;;;1.10;0.95;;;;;;;15.85;86.77;100539.70;1783117;80;21140;-42
2021/05/01 05:38:53;;;;;;;1.37;0.85;;;;;;;15.94;86.69;100537.56;1784690;78;21108;-41
2021/05/01 05:41:23;;;;;;;1.07;0.82;;;;;;;16.01;86.10;100543.45;1790881;80;21096;-40
2021/05/01 05:43:51;;;;;;;0.55;0.55;;;;;;;16.12;85.92;100543.43;1790228;80;21179;-42
2021/05/01 05:46:18;;;;;;;1.12;0.75;;;;;;;16.24;85.46;100533.22;1790652;80;21131;-40
2021/05/01 05:48:46;;;;;;;1.67;1.25;;;;;;;16.37;85.06;100539.23;1788127;80;21164;-41
2021/05/01 05:51:15;;;;;;;1.00;0.57;;;;;;;16.50;83.54;100547.16;1789781;80;21466;-41
2021/05/01 05:53:45;;;;;;;0.23;0.23;;;;;;;16.59;83.21;100539.72;1790507;80;21116;-43
2021/05/01 05:56:13;;;;;;;0.70;0.55;;;;;;;16.71;82.66;100541.31;1789838;78;21445;-41
2021/05/01 05:58:42;;;;;;;3.08;0.82;;;;;;;16.86;83.05;100541.48;1767800;80;21211;-41
2021/05/01 06:01:10;;;;;;;0.53;0.53;;;;;;;17.02;82.09;100540.49;1787046;78;21561;-43
2021/05/01 06:03:39;;;;;;;1.15;0.75;;;;;;;17.18;81.03;100544.98;1768913;80;21134;-40
2021/05/01 06:06:15;;;;;;;1.05;0.68;;;;;;;17.32;80.54;100547.62;1765548;80;21162;-41
2021/05/01 06:08:44;;;;;;;0.50;0.50;;;;;;;17.37;78.87;100547.47;1778727;78;21154;-41
2021/05/01 06:11:11;;;;;;;1.07;0.50;;;;;;;17.38;77.73;100549.08;1778463;79;21180;-40
2021/05/01 06:13:39;;;;;;;0.62;0.60;;;;;;;17.36;76.66;100554.14;1750892;81;21463;-41
2021/05/01 06:16:07;;;;;;;0.80;0.62;;;;;;;17.33;75.54;100556.14;1790597;80;21112;-41
2021/05/01 06:18:36;;;;;;;0.10;0.10;;;;;;;17.28;75.56;100560.44;1759716;80;21152;-41
2021/05/01 06:21:04;;;;;;;1.98;0.72;;;;;;;17.31;76.87;100553.72;1769136;80;21144;-41
2021/05/01 06:23:31;;;;;;;1.15;0.78;;;;;;;17.39;76.43;100559.02;1766430;81;21475;-41
2021/05/01 06:26:01;;;;;;;0.57;0.57;;;;;;;17.48;76.10;100559.84;1769768;80;21209;-41
2021/05/01 06:28:28;;;;;;;0.60;0.60;;;;;;;17.54;75.53;100555.78;1733337;81;21170;-42
2021/05/01 06:31:03;;;;;;;0.57;0.30;;;;;;;17.60;75.46;100557.23;1750827;79;21141;-41
2021/05/01 06:33:31;;;;;;;0.72;0.72;;;;;;;17.67;74.24;100570.56;1794006;78;21122;-41
2021/05/01 06:35:59;;;;;;;1.00;0.93;;;;;;;17.73;73.26;100568.45;1780103;79;21131;-41
2021/05/01 06:38:28;;;;;;;0.90;0.35;;;;;;;17.85;72.23;100568.64;1797637;79;21161;-41
2021/05/01 06:40:59;;;;;;;0.62;0.20;;;;;;;17.99;72.18;100575.41;1791008;79;21110;-40
2021/05/01 06:44:02;;;;;;;0.55;0.55;;;;;;;18.08;71.29;100582.33;1768413;79;21146;-41
2021/05/01 06:46:27;;;;;;;0.85;0.65;;;;;;;18.21;69.93;100571.06;1763715;79;21116;-40
2021/05/01 06:48:55;;;;;;;1.72;0.35;;;;;;;18.47;68.95;100576.55;1747822;79;21134;-40
2021/05/01 06:51:23;;;;;;;0.82;0.82;;;;;;;18.66;68.37;100583.65;1724622;81;21110;-42
2021/05/01 06:53:51;;;;;;;0.33;0.33;;;;;;;18.77;68.24;100578.04;1766165;79;21126;-41
2021/05/01 06:56:18;;;;;;;0.35;0.33;;;;;;;18.86;68.87;100584.33;1766912;79;21131;-42
2021/05/01 06:58:46;;;;;;;0.57;0.45;;;;;;;19.18;65.02;100591.77;1764923;79;21198;-41
2021/05/01 07:01:14;;;;;;;0.10;0.10;;;;;;;19.29;63.69;100576.39;1767229;79;21140;-41
2021/05/01 07:03:45;;;;;;;2.02;1.37;;;;;;;19.44;62.77;100576.96;1766678;81;21583;-41
2021/05/01 07:06:14;;;;;;;2.17;0.35;;;;;;;19.44;62.77;100576.96;1768938;79;21145;-41
2021/05/01 07:08:42;;;;;;;0.30;0.30;;;;;;;19.59;62.28;100581.91;1766139;81;21157;-43
2021/05/01 07:11:10;;;;;;;0.28;0.28;;;;;;;19.74;62.84;100578.55;1766286;81;21165;-41
2021/05/01 07:13:39;;;;;;;0.53;0.53;;;;;;;19.83;61.88;100587.37;1770366;79;21432;-41
2021/05/01 07:16:11;;;;;;;0.65;0.47;;;;;;;19.95;62.46;100582.72;1755889;81;21172;-42
2021/05/01 07:18:43;;;;;;;1.17;0.72;;;;;;;19.93;62.71;100583.63;1768504;79;21189;-41
2021/05/01 07:21:11;;;;;;;1.57;0.62;;;;;;;19.76;62.97;100581.80;1767032;81;21478;-41
2021/05/01 07:23:39;;;;;;;0.72;0.72;;;;;;;19.63;63.19;100582.83;1767732;79;21492;-41
2021/05/01 07:26:06;;;;;;;0.10;0.10;;;;;;;19.62;64.30;100568.75;1780308;79;21170;-41
2021/05/01 07:28:39;;;;;;;0.62;0.62;;;;;;;19.72;60.68;100571.14;1690165;79;21685;-41
2021/05/01 07:31:08;;;;;;;1.75;0.93;;;;;;;19.72;60.68;100571.14;1779553;79;21548;-41
2021/05/01 07:33:46;;;;;;;1.07;0.50;;;;;;;19.84;60.97;100573.76;1763360;80;21158;-42
2021/05/01 07:36:19;;;;;;;0.25;0.25;;;;;;;20.04;59.16;100580.44;1766655;80;21535;-41
2021/05/01 07:38:47;;;;;;;0.23;0.23;;;;;;;20.13;57.94;100581.98;1766889;80;21577;-41
2021/05/01 07:41:15;;;;;;;0.88;0.47;;;;;;;20.16;58.45;100580.48;1766777;80;21126;-40
2021/05/01 07:43:49;;;;;;;0.85;0.57;;;;;;;20.21;56.98;100579.47;1766644;80;21394;-42
2021/05/01 07:46:16;;;;;;;0.95;0.55;;;;;;;20.26;53.85;100584.80;1766593;80;21186;-41
2021/05/01 07:48:44;;;;;;;0.25;0.25;;;;;;;20.28;52.36;100583.30;1755695;80;21580;-41
2021/05/01 07:51:11;;;;;;;0.42;0.42;;;;;;;20.33;54.31;100581.70;1761916;81;21139;-41
2021/05/01 07:53:39;;;;;;;1.95;0.42;;;;;;;20.24;53.23;100587.09;1753630;81;21126;-41
2021/05/01 07:56:07;;;;;;;0.85;0.62;;;;;;;20.24;55.20;100595.42;1758599;80;21156;-41
2021/05/01 07:58:34;;;;;;;0.40;0.40;;;;;;;20.25;53.09;100593.70;1760379;79;21133;-41
2021/05/01 08:01:03;;;;;;;0.30;0.30;;;;;;;20.19;54.91;100600.60;1766327;80;21137;-41
2021/05/01 08:03:32;;;;;;;1.55;0.50;;;;;;;20.18;56.37;100598.41;1755460;80;21206;-41
2021/05/01 08:05:59;;;;;;;0.70;0.70;;;;;;;20.22;55.63;100599.11;1762309;80;21135;-41
2021/05/01 08:08:28;;;;;;;0.57;0.57;;;;;;;20.19;54.23;100604.19;1734204;80;21142;-41
2021/05/01 08:10:59;;;;;;;1.87;1.35;;;;;;;20.22;57.35;100603.27;1764210;80;21564;-41
2021/05/01 08:13:26;;;;;;;0.62;0.57;;;;;;;20.39;58.06;100603.09;1752208;80;21732;-41
2021/05/01 08:15:54;;;;;;;0.33;0.33;;;;;;;20.55;57.00;100604.11;1751001;80;21167;-42
2021/05/01 08:18:22;;;;;;;0.45;0.40;;;;;;;20.63;55.32;100607.95;1784752;79;21320;-41
2021/05/01 08:20:50;;;;;;;0.72;0.72;;;;;;;20.65;53.84;100607.59;1775526;80;21162;-40
2021/05/01 08:23:17;;;;;;;0.72;0.72;;;;;;;20.72;56.84;100605.06;1758984;80;21545;-42
2021/05/01 08:25:45;;;;;;;0.53;0.40;;;;;;;20.86;55.59;100616.66;1768942;80;21125;-41
2021/05/01 08:28:13;;;;;;;0.37;0.37;;;;;;;20.96;56.03;100615.40;1779890;79;21222;-40
2021/05/01 08:30:41;;;;;;;0.82;0.82;;;;;;;20.95;56.38;100613.79;1731070;80;21174;-42
2021/05/01 08:33:08;;;;;;;0.20;0.20;;;;;;;20.99;55.70;100620.26;1772589;80;21103;-40
2021/05/01 08:35:36;;;;;;;0.57;0.50;;;;;;;21.04;51.51;100616.69;1754010;81;21147;-41
2021/05/01 08:38:05;;;;;;;0.47;0.47;;;;;;;21.08;50.45;100622.94;1751846;80;21131;-41
2021/05/01 08:40:35;;;;;;;0.50;0.50;;;;;;;21.12;50.19;100619.13;1767504;80;21008;-41
2021/05/01 08:43:02;;;;;;;0.20;0.20;;;;;;;21.25;51.67;100616.56;1784528;80;21122;-41
2021/05/01 08:45:31;;;;;;;1.02;1.00;;;;;;;21.45;51.15;100609.29;1784788;80;21110;-41
2021/05/01 08:48:00;;;;;;;0.45;0.45;;;;;;;21.49;50.89;100605.25;1767673;80;21129;-41
2021/05/01 08:50:36;;;;;;;1.32;0.60;;;;;;;21.37;51.00;100611.59;1764067;80;21521;-41
2021/05/01 08:53:06;;;;;;;1.10;0.88;;;;;;;21.28;51.92;100609.50;1758389;79;22023;-42
2021/05/01 08:55:37;;;;;;;0.40;0.25;;;;;;;21.31;51.02;100611.58;1762781;80;21138;-42
2021/05/01 08:58:07;;;;;;;1.17;1.07;;;;;;;21.47;52.43;100605.59;1784904;80;21135;-43
2021/05/01 09:00:39;;;;;;;0.40;0.40;;;;;;;21.76;51.25;100616.20;1752228;80;21110;-41
2021/05/01 09:03:09;;;;;;;2.08;0.50;;;;;;;21.97;49.67;100619.39;1775649;80;21147;-42
2021/05/01 09:05:37;;;;;;;0.57;0.57;;;;;;;22.04;48.06;100614.03;1757105;80;21137;-43
2021/05/01 09:08:07;;;;;;;0.08;0.08;;;;;;;21.86;47.98;100614.32;1757377;80;21166;-41
2021/05/01 09:10:43;;;;;;;0.25;0.25;;;;;;;21.56;45.80;100598.52;1753930;81;21438;-43
2021/05/01 09:13:23;;;;;;;0.98;0.47;;;;;;;21.46;46.49;100612.88;1749113;80;21445;-41
2021/05/01 09:16:08;;;;;;;0.75;0.75;;;;;;;21.47;45.88;100608.95;1751721;80;21577;-41
2021/05/01 09:18:58;;;;;;;0.75;0.35;;;;;;;21.45;44.86;100620.41;1768698;80;21202;-42
2021/05/01 09:21:30;;;;;;;1.12;0.68;;;;;;;21.33;48.42;100626.53;1785178;79;21110;-42
2021/05/01 09:23:57;;;;;;;0.10;0.10;;;;;;;21.42;48.84;100629.45;1785154;79;21120;-41
2021/05/01 09:26:41;;;;;;;1.00;0.60;;;;;;;21.59;48.66;100640.11;1779451;79;21131;-41
2021/05/01 09:29:10;;;;;;;1.47;1.20;;;;;;;21.63;47.83;100641.81;1754487;80;21161;-41
2021/05/01 09:31:44;;;;;;;1.20;0.93;;;;;;;21.58;47.75;100639.86;1783354;79;21167;-42
2021/05/01 09:34:12;;;;;;;0.98;0.68;;;;;;;21.66;46.84;100633.34;1770849;79;21608;-42
2021/05/01 09:36:40;;;;;;;0.47;0.42;;;;;;;21.80;46.98;100621.86;1753953;81;21118;-41
2021/05/01 09:39:14;;;;;;;1.10;0.72;;;;;;;21.78;43.98;100622.20;1754048;81;21126;-41
2021/05/01 09:41:44;;;;;;;2.17;0.82;;;;;;;21.86;46.37;100617.10;1753983;81;21162;-41
2021/05/01 09:44:15;;;;;;;0.75;0.72;;;;;;;22.07;46.28;100621.67;1757460;80;21441;-42
2021/05/01 09:46:48;;;;;;;0.75;0.75;;;;;;;22.19;45.57;100622.21;1752407;80;21165;-43
2021/05/01 09:49:25;;;;;;;0.55;0.42;;;;;;;22.10;46.56;100620.37;1738189;82;21125;-42
2021/05/01 09:52:09;;;;;;;0.95;0.47;;;;;;;21.99;46.98;100626.22;1766950;80;21111;-42
2021/05/01 09:54:40;;;;;;;0.70;0.55;;;;;;;21.93;46.32;100626.81;1766605;79;21146;-43
2021/05/01 09:57:11;;;;;;;1.90;1.80;;;;;;;21.78;46.45;100621.40;1766746;80;28942;-42
2021/05/01 10:02:34;;;;;;;1.55;0.60;;;;;;;21.66;47.23;100616.66;1836584;76;22439;-41
2021/05/01 10:05:13;;;;;;;3.15;1.75;;;;;;;21.52;44.79;100620.42;1741567;81;21101;-42
2021/05/01 10:07:47;;;;;;;1.07;0.90;;;;;;;21.49;44.41;100616.37;1743677;81;21161;-42
2021/05/01 10:10:14;;;;;;;2.02;1.60;;;;;;;21.52;46.67;100618.44;1744752;80;21168;-42
2021/05/01 10:12:43;;;;;;;0.20;0.20;;;;;;;21.64;47.66;100613.45;1743481;81;21128;-41
2021/05/01 10:15:18;;;;;;;0.40;0.40;;;;;;;21.75;46.38;100617.34;1750348;80;21146;-43
2021/05/01 10:17:46;;;;;;;0.60;0.50;;;;;;;21.88;44.24;100616.17;1748258;81;21130;-41
2021/05/01 10:20:17;;;;;;;0.65;0.55;;;;;;;21.98;46.09;100616.82;1746219;81;21188;-42
2021/05/01 10:22:47;;;;;;;0.35;0.35;;;;;;;22.08;47.49;100614.93;1736857;81;21580;-42
2021/05/01 10:25:23;;;;;;;0.65;0.50;;;;;;;22.28;47.75;100611.19;1749843;81;21170;-42
2021/05/01 10:28:02;;;;;;;0.60;0.60;;;;;;;22.51;46.81;100608.62;1731054;81;21118;-42
2021/05/01 10:30:39;;;;;;;1.10;0.90;;;;;;;22.68;46.64;100609.47;1738597;81;21135;-42
2021/05/01 10:36:28;;;;;;;0.55;0.55;;;;;;;22.93;43.35;100612.30;1743618;81;21596;-42
2021/05/01 10:39:06;;;;;;;0.53;0.53;;;;;;;22.83;44.11;100612.05;1742540;81;21193;-41
2021/05/01 10:41:36;;;;;;;0.50;0.50;;;;;;;22.65;45.25;100605.98;1743374;81;21153;-42
2021/05/01 10:44:06;;;;;;;0.20;0.20;;;;;;;22.48;43.19;100600.99;1763409;81;21130;-41
2021/05/01 10:46:40;;;;;;;0.68;0.55;;;;;;;22.32;45.09;100603.73;1750224;81;21130;-41
2021/05/01 10:49:08;;;;;;;;;;;;;;;22.27;45.14;100605.97;1736373;81;21133;-41
2021/05/01 10:51:41;;;;;;;0.98;0.47;;;;;;;22.42;46.41;100607.97;1751372;81;20277;-41
2021/05/01 10:54:17;;;;;;;0.28;0.28;;;;;;;22.66;45.37;100609.82;1782379;80;21146;-42
2021/05/01 10:56:50;;;;;;;2.50;0.70;;;;;;;23.05;45.17;100610.05;1727507;81;21549;-42
2021/05/01 10:59:30;;;;;;;0.98;0.72;;;;;;;23.32;44.02;100604.14;1731469;81;21613;-45
2021/05/01 11:02:00;;;;;;;0.50;0.50;;;;;;;23.46;43.50;100599.45;1738865;81;21178;-41
2021/05/01 11:04:29;;;;;;;0.72;0.68;;;;;;;23.63;42.39;100594.66;1724836;83;21158;-42
2021/05/01 11:07:18;;;;;;;0.70;0.40;;;;;;;23.78;41.98;100588.24;1740895;81;21134;-42
2021/05/01 11:09:47;;;;;;;2.20;0.95;;;;;;;23.95;41.65;100587.81;1753582;79;21115;-41
2021/05/01 11:12:17;;;;;;;0.88;0.82;;;;;;;24.03;42.44;100592.39;1750919;81;21446;-41
2021/05/01 11:15:07;;;;;;;0.40;0.40;;;;;;;24.03;40.28;100586.80;1723872;83;21145;-42
2021/05/01 11:17:47;;;;;;;1.07;0.98;;;;;;;24.14;41.14;100589.80;1736909;81;21167;-41
2021/05/01 11:20:16;;;;;;;0.40;0.40;;;;;;;24.35;40.26;100583.81;1725977;81;21114;-42
2021/05/01 11:22:50;;;;;;;1.15;0.40;;;;;;;24.45;39.88;100583.23;1724240;81;21138;-42
2021/05/01 11:25:22;;;;;;;0.53;0.20;;;;;;;24.42;41.60;100574.77;1724166;81;21118;-43
2021/05/01 11:27:51;;;;;;;0.85;0.85;;;;;;;24.44;40.62;100576.02;1754103;81;21170;-42
2021/05/01 11:30:21;;;;;;;0.80;0.30;;;;;;;24.41;40.64;100571.77;1727945;81;21130;-41
2021/05/01 11:32:49;;;;;;;0.80;0.42;;;;;;;24.35;40.33;100571.25;1736755;81;21560;-43
2021/05/01 11:35:22;;;;;;;0.60;0.60;;;;;;;24.19;41.40;100570.55;1750710;81;21115;-42
2021/05/01 11:37:58;;;;;;;0.53;0.53;;;;;;;24.25;40.32;100567.66;1724095;81;21122;-42
2021/05/01 11:40:29;;;;;;;1.02;0.65;;;;;;;24.38;41.34;100567.73;1703018;81;21126;-43
2021/05/01 11:42:57;;;;;;;1.77;0.50;;;;;;;24.54;39.32;100567.64;1758506;81;21138;-42